Etusivu
METAR-TAF:

METAR-TAF

Lentoasemat :

Tabarka, Tunisia

Leveyspiiri: 36-57N, Pituuspiiri: 008-45E, korkeus merenpinnasta: 20 m

Tämänhetkinen sää

Tämä raportti tehtiin 33 minuuttia sitten, kello 06.00 UTC
Tuuli 7 kn lännestä
Lämpötila 18°C
Kosteus 73%
Ilmanpaine 1015 hPa
Näkyvyys 10 km tai enemmän
Hajanaisia pilviä 2000 ft:n korkeudessa
Hajanaisia pilviä 3000 ft:n korkeudessa

METAR: DTKA 210600Z 26007KT 9999 SCT020 SCT030 18/13 Q1015 NOSIG

Aika: 07:33 (06:33 UTC)

Sääennuste

Tämä raportti tehtiin 3 tuntia ja 33 minuuttia sitten, kello 03.00 UTC
Ennuste voimassa 21. päivästä klo 04 UTC - 21. päivään klo 13 UTC
Tuuli 10 kn lännestä
Näkyvyys 10 km tai enemmän
Hajanaisia pilviä 2000 ft:n korkeudessa
Hajanaisia pilviä 3000 ft:n korkeudessa

TAF: DTKA 210300Z 2104/2113 26010KT 9999 SCT020 SCT030

Säähavainnot ja -ennusteet yli 4000 lentoasemalta (METAR- ja TAF-raportit).

Käytössä olevat sääasemat on merkitty karttaan keltaisilla ja punaisilla pisteillä.

Aseta hiiri pisteen päälle nähdäksesi sääaseman nimen.

Klikkaa sitten nähdäksesi säähavainnot ja -ennusteet.

Kartan vaihtaminen: klikkaa mustalla rastilla varustettuja vihreitä pisteitä, niin voit zoomata sisään; viivalla varustettua vihreää pistettä, niin voit zoomata ulos tai vihreitä nuolia, niin pääset viereisille kartoille.


METAR-TAF: